Time;durP1;ratioP1;P1;durP2;ratioP2;P2;SDS_P1;SDS_P2;PMS_P1;PMS_P2;Temp;Humidity;BMP_temperature;BMP_pressure;BME280_temperature;BME280_humidity;BME280_pressure;Samples;Min_cycle;Max_cycle;Signal;HPM_P1;HPM_P2
2022/09/29 00:01:04;;;;;;;3.87;3.58;;;12.30;53.20;;;;;;20625;6754;306075;-85
2022/09/29 00:03:39;;;;;;;4.60;4.20;;;12.40;53.00;;;;;;20393;6766;279253;-85
2022/09/29 00:06:15;;;;;;;3.70;3.50;;;12.60;52.40;;;;;;20520;6784;311524;-85
2022/09/29 00:08:50;;;;;;;6.80;4.20;;;12.80;52.10;;;;;;20807;6766;117381;-85
2022/09/29 00:11:26;;;;;;;4.45;3.90;;;12.60;52.40;;;;;;20560;6766;281707;-85
2022/09/29 00:14:03;;;;;;;4.37;3.60;;;12.60;51.90;;;;;;20615;6832;117685;-85
2022/09/29 00:16:38;;;;;;;3.73;3.40;;;12.40;52.40;;;;;;20768;6782;122171;-86
2022/09/29 00:19:14;;;;;;;4.23;3.80;;;12.10;53.40;;;;;;20844;6757;121011;-85
2022/09/29 00:21:49;;;;;;;4.43;3.73;;;11.90;53.80;;;;;;20768;6768;123268;-85
2022/09/29 00:24:25;;;;;;;4.47;4.07;;;11.70;54.20;;;;;;20552;6777;307466;-85
2022/09/29 00:27:01;;;;;;;4.55;3.85;;;11.90;53.80;;;;;;20527;6788;297768;-85
2022/09/29 00:29:36;;;;;;;4.10;3.80;;;12.20;53.20;;;;;;20720;6788;117188;-83
2022/09/29 00:32:12;;;;;;;3.70;3.40;;;12.20;53.30;;;;;;20699;6788;117723;-84
2022/09/29 00:34:49;;;;;;;3.30;3.10;;;11.90;53.80;;;;;;20711;6788;116854;-84
2022/09/29 00:37:24;;;;;;;3.30;2.90;;;11.70;54.30;;;;;;20692;6803;117115;-84
2022/09/29 00:40:00;;;;;;;2.77;2.67;;;11.50;54.70;;;;;;20736;6783;123147;-84
2022/09/29 00:42:36;;;;;;;3.37;3.10;;;11.40;55.00;;;;;;20671;6783;117209;-84
2022/09/29 00:45:12;;;;;;;3.17;2.93;;;11.30;55.40;;;;;;20751;6784;117375;-84
2022/09/29 00:47:47;;;;;;;3.50;3.30;;;11.30;55.70;;;;;;20525;6780;310456;-84
2022/09/29 00:50:22;;;;;;;3.23;3.00;;;11.60;55.40;;;;;;20856;6751;116090;-84
2022/09/29 00:53:00;;;;;;;3.43;2.60;;;11.70;55.20;;;;;;20686;6766;117469;-84
2022/09/29 00:55:35;;;;;;;3.00;2.77;;;11.50;55.40;;;;;;20833;6752;116895;-84
2022/09/29 00:58:29;;;;;;;3.03;2.83;;;11.40;55.70;;;;;;20635;6752;336269;-84
2022/09/29 01:01:05;;;;;;;2.83;2.70;;;11.70;55.50;;;;;;20791;6769;120025;-84
2022/09/29 01:03:43;;;;;;;2.47;2.37;;;11.70;54.80;;;;;;20668;6752;121629;-84
2022/09/29 01:06:18;;;;;;;2.70;2.50;;;11.50;55.10;;;;;;20771;6769;117282;-85
2022/09/29 01:09:11;;;;;;;2.70;2.50;;;11.40;55.50;;;;;;20781;6773;117049;-84
2022/09/29 01:11:47;;;;;;;2.70;2.60;;;11.30;55.80;;;;;;20512;6772;307238;-85
2022/09/29 01:14:23;;;;;;;3.03;2.65;;;11.70;55.00;;;;;;20527;6785;337767;-84
2022/09/29 01:16:58;;;;;;;2.50;2.40;;;12.10;53.90;;;;;;20742;6772;117312;-84
2022/09/29 01:19:43;;;;;;;2.63;2.40;;;12.10;54.00;;;;;;20764;6770;117432;-84
2022/09/29 01:22:39;;;;;;;3.10;2.90;;;11.80;54.40;;;;;;20531;6770;306983;-84
2022/09/29 01:25:34;;;;;;;2.60;2.50;;;12.00;54.20;;;;;;20738;6785;117133;-84
2022/09/29 01:28:16;;;;;;;2.37;2.27;;;11.90;54.40;;;;;;20803;6766;123340;-84
2022/09/29 01:31:21;;;;;;;3.53;2.40;;;11.70;55.10;;;;;;20763;6766;121044;-85
2022/09/29 01:34:03;;;;;;;2.40;2.30;;;11.60;55.60;;;;;;20560;6773;118784;-84
2022/09/29 01:36:59;;;;;;;2.63;2.53;;;11.50;56.20;;;;;;20813;6773;117741;-84
2022/09/29 01:39:40;;;;;;;4.20;2.93;;;11.40;56.50;;;;;;20834;6751;119603;-84
2022/09/29 01:42:17;;;;;;;3.90;3.60;;;11.30;56.70;;;;;;20557;6755;312657;-84
2022/09/29 01:44:59;;;;;;;3.50;3.30;;;11.60;56.70;;;;;;20636;6758;307589;-84
2022/09/29 01:47:35;;;;;;;3.90;3.37;;;12.00;55.60;;;;;;20592;6756;283418;-84
2022/09/29 01:50:11;;;;;;;4.90;3.37;;;12.30;54.70;;;;;;20685;6737;306079;-85
2022/09/29 01:52:51;;;;;;;4.65;3.80;;;12.60;54.30;;;;;;20546;6751;341246;-84
2022/09/29 01:55:26;;;;;;;3.80;3.30;;;12.70;53.60;;;;;;20896;6732;117738;-84
2022/09/29 01:58:05;;;;;;;4.18;3.40;;;12.50;54.00;;;;;;20594;6760;277377;-84
2022/09/29 02:00:40;;;;;;;3.90;3.55;;;12.50;53.90;;;;;;20583;6766;309570;-84
2022/09/29 02:03:35;;;;;;;4.37;3.30;;;12.60;53.40;;;;;;20695;6766;116379;-84
2022/09/29 02:06:11;;;;;;;3.50;3.20;;;12.40;53.90;;;;;;20897;6732;117192;-84
2022/09/29 02:08:50;;;;;;;4.30;4.00;;;12.00;54.80;;;;;;20693;6732;335257;-84
2022/09/29 02:11:25;;;;;;;3.87;3.58;;;12.10;54.80;;;;;;20696;6732;341395;-84
2022/09/29 02:14:04;;;;;;;3.77;3.47;;;12.30;54.00;;;;;;20667;6807;116554;-84
2022/09/29 02:16:40;;;;;;;3.53;3.33;;;12.20;54.20;;;;;;20837;6751;116211;-84
2022/09/29 02:19:16;;;;;;;4.10;3.72;;;11.90;55.50;;;;;;20655;6747;276648;-85
2022/09/29 02:21:53;;;;;;;3.67;3.37;;;12.00;55.00;;;;;;20821;6747;124199;-84
2022/09/29 02:24:27;;;;;;;3.40;3.20;;;12.00;55.10;;;;;;20843;6748;123524;-84
2022/09/29 02:27:02;;;;;;;3.50;3.27;;;11.80;55.70;;;;;;20864;6748;116462;-84
2022/09/29 02:29:38;;;;;;;4.57;3.80;;;11.60;56.20;;;;;;20841;6747;117213;-84
2022/09/29 02:32:15;;;;;;;3.92;3.40;;;11.50;56.60;;;;;;20591;6747;313032;-84
2022/09/29 02:34:51;;;;;;;3.60;3.30;;;11.70;56.30;;;;;;20853;6748;117587;-84
2022/09/29 02:37:36;;;;;;;3.73;3.40;;;11.70;56.20;;;;;;20845;6747;116127;-84
2022/09/29 02:40:31;;;;;;;3.90;3.70;;;11.60;56.60;;;;;;20699;6804;117167;-84
2022/09/29 02:43:30;;;;;;;4.33;3.93;;;11.40;56.90;;;;;;20480;6762;312434;-84
2022/09/29 02:46:18;;;;;;;4.10;3.80;;;11.70;56.30;;;;;;20810;6763;117387;-84
2022/09/29 02:49:01;;;;;;;4.57;4.18;;;11.70;56.30;;;;;;20639;6751;308845;-84
2022/09/29 02:51:48;;;;;;;4.77;4.23;;;12.00;56.60;;;;;;20593;6756;306643;-84
2022/09/29 02:54:43;;;;;;;4.53;4.13;;;12.30;55.90;;;;;;20627;6755;278401;-85
2022/09/29 02:57:22;;;;;;;4.27;3.90;;;12.60;55.40;;;;;;20623;6755;281468;-84
2022/09/29 03:00:10;;;;;;;4.32;4.03;;;12.80;54.80;;;;;;20597;6759;277592;-84
2022/09/29 03:02:39;;;;;;;3.73;3.50;;;12.90;53.80;;;;;;20780;6747;117736;-84
2022/09/29 03:05:15;;;;;;;3.47;3.27;;;12.60;54.10;;;;;;20837;6745;118254;-84
2022/09/29 03:07:52;;;;;;;3.93;3.17;;;12.10;54.90;;;;;;20818;6757;121004;-85
2022/09/29 03:10:27;;;;;;;4.60;3.70;;;11.80;55.80;;;;;;20831;6757;116970;-84
2022/09/29 03:13:03;;;;;;;3.67;3.47;;;11.50;56.50;;;;;;20514;6757;312990;-84
2022/09/29 03:15:38;;;;;;;3.27;3.00;;;11.70;56.50;;;;;;20825;6752;117927;-84
2022/09/29 03:18:15;;;;;;;4.20;3.90;;;11.80;56.50;;;;;;20634;6752;337267;-84
2022/09/29 03:20:50;;;;;;;3.80;3.60;;;11.90;56.40;;;;;;20633;6752;307458;-84
2022/09/29 03:23:26;;;;;;;4.43;4.10;;;12.20;55.90;;;;;;20475;6752;284695;-84
2022/09/29 03:26:03;;;;;;;4.90;4.50;;;12.50;55.10;;;;;;20659;6735;309656;-84
2022/09/29 03:28:39;;;;;;;4.68;4.32;;;12.60;54.30;;;;;;20687;6735;305459;-84
2022/09/29 03:31:15;;;;;;;4.17;3.87;;;12.70;54.00;;;;;;20895;6735;117412;-84
2022/09/29 03:33:51;;;;;;;4.43;4.12;;;12.40;54.30;;;;;;20494;6735;435050;-84
2022/09/29 03:36:27;;;;;;;4.20;3.90;;;12.40;54.20;;;;;;20681;6735;305175;-84
2022/09/29 03:39:03;;;;;;;3.70;3.40;;;12.50;53.90;;;;;;20916;6735;117501;-84
2022/09/29 03:41:38;;;;;;;3.23;3.00;;;12.30;54.20;;;;;;20863;6730;117314;-84
2022/09/29 03:44:14;;;;;;;4.90;3.40;;;12.00;55.20;;;;;;20894;6739;117293;-85
2022/09/29 03:46:50;;;;;;;4.05;3.60;;;11.70;56.00;;;;;;20688;6731;278019;-84
2022/09/29 03:49:26;;;;;;;4.28;3.90;;;11.80;56.00;;;;;;20691;6739;305968;-84
2022/09/29 03:52:02;;;;;;;4.17;3.87;;;12.10;55.20;;;;;;20868;6730;116402;-84
2022/09/29 03:54:37;;;;;;;4.30;3.30;;;12.00;55.20;;;;;;20913;6730;119372;-84
2022/09/29 03:57:13;;;;;;;3.80;3.60;;;11.70;55.60;;;;;;20703;6730;305704;-84
2022/09/29 03:59:49;;;;;;;3.90;3.67;;;11.70;55.20;;;;;;20896;6730;120008;-85
2022/09/29 04:02:25;;;;;;;5.13;4.83;;;11.60;55.40;;;;;;20642;6730;337021;-84
2022/09/29 04:05:01;;;;;;;4.80;4.27;;;11.80;55.60;;;;;;20920;6730;116779;-85
2022/09/29 04:07:36;;;;;;;4.30;4.00;;;11.70;55.60;;;;;;20895;6730;117657;-85
2022/09/29 04:10:12;;;;;;;4.50;4.03;;;11.40;55.90;;;;;;20702;6730;338429;-84
2022/09/29 04:12:48;;;;;;;27.33;4.87;;;11.50;55.90;;;;;;20612;6730;278614;-85
2022/09/29 04:15:23;;;;;;;11.43;4.47;;;11.80;55.60;;;;;;20708;6730;276894;-85
2022/09/29 04:17:59;;;;;;;20.27;4.67;;;12.00;55.00;;;;;;20890;6730;121780;-84
2022/09/29 04:20:34;;;;;;;177.47;9.33;;;11.80;55.20;;;;;;20934;6730;117114;-84
2022/09/29 04:23:11;;;;;;;30.93;4.23;;;11.50;55.80;;;;;;20820;6730;116834;-84
2022/09/29 04:25:45;;;;;;;35.30;31.30;;;11.10;56.20;;;;;;20920;6730;117115;-84
2022/09/29 04:28:21;;;;;;;4.07;3.87;;;10.80;56.80;;;;;;20925;6730;119509;-84
2022/09/29 04:31:02;;;;;;;5.37;4.97;;;10.60;57.20;;;;;;20924;6730;116526;-84
2022/09/29 04:33:38;;;;;;;5.18;4.87;;;10.50;57.50;;;;;;20555;6730;308005;-83
2022/09/29 04:36:13;;;;;;;4.53;4.23;;;10.70;56.80;;;;;;20932;6730;118157;-82
2022/09/29 04:38:50;;;;;;;4.47;3.63;;;10.70;56.70;;;;;;20955;6730;115946;-84
2022/09/29 04:41:24;;;;;;;4.53;4.13;;;10.60;57.30;;;;;;20957;6730;118353;-83
2022/09/29 04:44:04;;;;;;;5.15;4.75;;;10.40;57.70;;;;;;20497;6803;317245;-84
2022/09/29 04:46:39;;;;;;;4.10;3.83;;;10.70;57.30;;;;;;20960;6730;116901;-84
2022/09/29 04:49:18;;;;;;;4.33;4.03;;;10.70;57.00;;;;;;20954;6730;116050;-84
2022/09/29 04:51:50;;;;;;;5.62;5.22;;;10.50;57.30;;;;;;20678;6730;410694;-85
2022/09/29 04:54:37;;;;;;;6.60;6.03;;;10.70;57.00;;;;;;20869;6730;67981;-83
2022/09/29 04:57:09;;;;;;;5.50;5.07;;;10.70;57.00;;;;;;20983;6730;67354;-82
2022/09/29 04:59:55;;;;;;;;;;;;;;;;;;;;;
2022/09/29 05:02:56;;;;;;;6.32;5.72;;;10.40;57.90;;;;;;20655;6731;338640;-83
2022/09/29 05:05:09;;;;;;;;;;;;;;;;;;;;;
2022/09/29 05:07:46;;;;;;;;;;;;;;;;;;;;;
2022/09/29 05:10:23;;;;;;;;;;;;;;;;;;;;;
2022/09/29 05:13:15;;;;;;;;;;;;;;;;;;;;;
2022/09/29 05:16:07;;;;;;;5.43;5.03;;;10.30;58.70;;;;;;20639;6818;307555;-86
2022/09/29 05:18:52;;;;;;;;;;;;;;;;;;;;;
2022/09/29 05:21:18;;;;;;;5.12;4.82;;;10.60;57.90;;;;;;19861;7009;314123;-90
2022/09/29 05:23:53;;;;;;;5.60;5.20;;;10.90;57.50;;;;;;20338;6806;116011;-86
2022/09/29 05:26:29;;;;;;;6.17;5.67;;;10.90;57.40;;;;;;20804;6767;117336;-87
2022/09/29 05:29:05;;;;;;;5.63;5.20;;;10.60;57.60;;;;;;20766;6781;117281;-87
2022/09/29 05:31:40;;;;;;;5.93;5.60;;;10.40;58.20;;;;;;20468;6851;339337;-87
2022/09/29 05:34:16;;;;;;;5.93;5.53;;;10.70;58.10;;;;;;20816;6766;117366;-87
2022/09/29 05:36:51;;;;;;;6.73;6.23;;;10.80;58.00;;;;;;20819;6766;118219;-87
2022/09/29 05:39:37;;;;;;;6.90;6.45;;;10.70;58.30;;;;;;20610;6766;307098;-89
2022/09/29 05:42:07;;;;;;;6.77;6.23;;;11.00;58.20;;;;;;20758;6765;117468;-87
2022/09/29 05:44:43;;;;;;;6.03;5.53;;;11.00;57.90;;;;;;20839;6751;118340;-87
2022/09/29 05:47:19;;;;;;;10.32;8.20;;;10.80;58.00;;;;;;20643;6751;306238;-87
2022/09/29 05:49:55;;;;;;;115.07;8.65;;;11.00;57.60;;;;;;20643;6751;287480;-87
2022/09/29 05:52:30;;;;;;;52.97;7.17;;;11.40;56.60;;;;;;20571;6744;281264;-87
2022/09/29 05:55:10;;;;;;;361.07;17.73;;;11.70;55.90;;;;;;20672;6744;297235;-87
2022/09/29 05:57:42;;;;;;;46.00;6.73;;;11.90;55.50;;;;;;20857;6744;118109;-87
2022/09/29 06:00:20;;;;;;;214.87;13.10;;;11.70;55.90;;;;;;20609;6762;278300;-87
2022/09/29 06:02:59;;;;;;;521.53;15.73;;;11.80;55.90;;;;;;20765;6759;121389;-87
2022/09/29 06:05:39;;;;;;;122.03;7.57;;;11.60;56.10;;;;;;20861;6736;118349;-87
2022/09/29 06:08:15;;;;;;;440.70;15.87;;;11.30;56.80;;;;;;20692;6732;289747;-86
2022/09/29 06:10:52;;;;;;;91.10;7.80;;;11.40;56.50;;;;;;20902;6732;117601;-88
2022/09/29 06:13:31;;;;;;;151.83;9.83;;;11.40;56.60;;;;;;20704;6803;117737;-87
2022/09/29 06:16:03;;;;;;;210.43;12.30;;;11.20;57.30;;;;;;20687;6732;309119;-87
2022/09/29 06:18:40;;;;;;;78.50;8.27;;;11.30;57.50;;;;;;20719;6732;118651;-86
2022/09/29 06:21:16;;;;;;;37.75;7.28;;;11.40;57.20;;;;;;20706;6732;335290;-86
2022/09/29 06:24:06;;;;;;;8.57;5.43;;;11.50;57.20;;;;;;20727;6732;117692;-86
2022/09/29 06:26:32;;;;;;;92.17;8.77;;;11.50;57.20;;;;;;20889;6788;118310;-87
2022/09/29 06:29:07;;;;;;;7.35;6.65;;;11.30;58.00;;;;;;20678;6790;276797;-86
2022/09/29 06:31:43;;;;;;;6.00;4.73;;;11.50;57.20;;;;;;20898;6734;120774;-88
2022/09/29 06:34:18;;;;;;;2.80;2.60;;;11.60;57.30;;;;;;20741;6754;117150;-86
2022/09/29 06:39:49;;;;;;;5.17;4.63;;;11.60;57.60;;;;;;20531;6783;308066;-87
2022/09/29 06:42:25;;;;;;;4.60;4.20;;;12.20;56.20;;;;;;20521;6772;280712;-85
2022/09/29 06:45:02;;;;;;;3.92;3.62;;;12.60;55.70;;;;;;20614;6765;332433;-87
2022/09/29 06:47:38;;;;;;;3.33;3.00;;;12.90;54.30;;;;;;20768;6762;120739;-86
2022/09/29 06:50:13;;;;;;;3.63;3.40;;;12.90;54.70;;;;;;20841;6752;117204;-86
2022/09/29 06:52:49;;;;;;;3.93;3.50;;;12.80;55.50;;;;;;20709;6774;123994;-86
2022/09/29 06:55:24;;;;;;;3.40;3.20;;;12.60;55.90;;;;;;20554;6761;336669;-87
2022/09/29 06:58:00;;;;;;;3.73;3.53;;;12.90;54.90;;;;;;20856;6747;117375;-84
2022/09/29 07:00:35;;;;;;;3.10;3.00;;;13.10;54.90;;;;;;20857;6747;116844;-85
2022/09/29 07:03:14;;;;;;;3.58;3.37;;;13.00;55.30;;;;;;20501;6755;308917;-84
2022/09/29 07:05:47;;;;;;;3.50;3.20;;;13.30;54.10;;;;;;20831;6771;118318;-85
2022/09/29 07:08:22;;;;;;;3.50;3.23;;;13.40;54.30;;;;;;20836;6760;117131;-85
2022/09/29 07:10:58;;;;;;;2.95;2.85;;;13.30;54.60;;;;;;20597;6775;306395;-85
2022/09/29 07:13:34;;;;;;;3.10;3.00;;;13.60;54.20;;;;;;20609;6791;122876;-85
2022/09/29 07:16:10;;;;;;;4.18;3.97;;;13.70;53.80;;;;;;20538;6792;339599;-85
2022/09/29 07:18:54;;;;;;;3.87;3.60;;;13.90;52.70;;;;;;20858;6753;120765;-85
2022/09/29 07:21:21;;;;;;;3.33;3.13;;;14.00;53.00;;;;;;20744;6788;117485;-85
2022/09/29 07:23:57;;;;;;;3.07;2.90;;;13.80;53.30;;;;;;20339;6791;339310;-85
2022/09/29 07:26:32;;;;;;;3.70;3.40;;;14.00;52.60;;;;;;20810;6758;119749;-86
2022/09/29 07:29:08;;;;;;;3.17;2.83;;;14.00;52.90;;;;;;20729;6773;118346;-85
2022/09/29 07:31:50;;;;;;;3.73;3.37;;;13.90;53.30;;;;;;20699;6793;117433;-85
2022/09/29 07:34:22;;;;;;;3.27;3.10;;;13.70;53.60;;;;;;20764;6788;116634;-85
2022/09/29 07:36:58;;;;;;;3.87;3.20;;;13.50;54.00;;;;;;20774;6773;117610;-85
2022/09/29 07:39:33;;;;;;;3.80;3.50;;;13.50;54.50;;;;;;20775;6773;119935;-85
2022/09/29 07:42:09;;;;;;;3.50;3.30;;;13.40;54.70;;;;;;20505;6773;313085;-85
2022/09/29 07:44:45;;;;;;;3.00;2.90;;;13.70;53.60;;;;;;20725;6789;117254;-85
2022/09/29 07:47:20;;;;;;;3.30;3.10;;;13.80;53.70;;;;;;20711;6796;118361;-85
2022/09/29 07:49:56;;;;;;;3.67;2.83;;;13.80;54.10;;;;;;20727;6781;118206;-85
2022/09/29 07:52:31;;;;;;;3.70;3.30;;;13.70;54.40;;;;;;20471;6793;280424;-85
2022/09/29 07:55:07;;;;;;;3.50;3.13;;;13.90;53.60;;;;;;20761;6776;117259;-86
2022/09/29 07:57:43;;;;;;;3.20;3.00;;;14.00;53.80;;;;;;20822;6765;119181;-86
2022/09/29 08:00:18;;;;;;;5.30;4.90;;;14.00;54.10;;;;;;20667;6747;279335;-85
2022/09/29 08:02:54;;;;;;;3.73;2.73;;;14.20;53.20;;;;;;20797;6745;117338;-86
2022/09/29 08:05:32;;;;;;;3.00;2.80;;;14.20;53.40;;;;;;20941;6735;117097;-85
2022/09/29 08:08:05;;;;;;;3.87;3.35;;;14.10;53.90;;;;;;20724;6735;306690;-85
2022/09/29 08:10:50;;;;;;;3.40;3.20;;;14.40;53.00;;;;;;20950;6735;121769;-87
2022/09/29 08:13:16;;;;;;;3.20;3.00;;;14.50;53.20;;;;;;20725;6805;117392;-88
2022/09/29 08:15:52;;;;;;;3.17;2.93;;;14.40;53.60;;;;;;20857;6732;124215;-88
2022/09/29 08:18:27;;;;;;;6.10;5.70;;;14.40;54.10;;;;;;20740;6732;305410;-88
2022/09/29 08:21:03;;;;;;;5.33;4.83;;;14.60;52.40;;;;;;20918;6776;117130;-88
2022/09/29 08:23:39;;;;;;;3.50;3.30;;;14.80;52.60;;;;;;20504;6732;278893;-87
2022/09/29 08:26:14;;;;;;;3.40;3.20;;;15.00;51.20;;;;;;20701;6749;305783;-86
2022/09/29 08:29:09;;;;;;;3.30;3.10;;;15.30;50.30;;;;;;20715;6742;323977;-87
2022/09/29 08:31:28;;;;;;;3.40;3.20;;;15.60;49.70;;;;;;20810;6753;119005;-88
2022/09/29 08:34:01;;;;;;;3.33;3.12;;;15.50;50.20;;;;;;20431;6815;340119;-88
2022/09/29 08:36:36;;;;;;;2.87;2.67;;;15.60;49.50;;;;;;20799;6744;117529;-90
2022/09/29 08:39:22;;;;;;;3.20;3.00;;;15.50;50.10;;;;;;20873;6762;119089;-88
2022/09/29 08:41:51;;;;;;;2.60;2.43;;;15.30;50.90;;;;;;20839;6761;117704;-88
2022/09/29 08:44:39;;;;;;;3.43;2.93;;;15.10;51.50;;;;;;20917;6747;119214;-88
2022/09/29 08:47:21;;;;;;;3.37;3.17;;;15.00;51.90;;;;;;20644;6772;309755;-88
2022/09/29 08:50:03;;;;;;;3.60;3.30;;;15.30;50.20;;;;;;20712;6766;117207;-89
2022/09/29 08:52:39;;;;;;;3.60;3.30;;;15.40;50.50;;;;;;20711;6821;118115;-88
2022/09/29 08:55:17;;;;;;;3.57;3.10;;;15.30;51.10;;;;;;20769;6804;120713;-88
2022/09/29 08:57:52;;;;;;;3.22;3.05;;;15.10;51.50;;;;;;20574;6764;307210;-88
2022/09/29 09:00:39;;;;;;;3.27;3.07;;;15.40;50.70;;;;;;20553;6790;278643;-88
2022/09/29 09:03:26;;;;;;;3.63;3.30;;;15.90;49.80;;;;;;20382;6840;310165;-89
2022/09/29 09:06:18;;;;;;;2.80;2.60;;;16.30;48.60;;;;;;20784;6767;117154;-88
2022/09/29 09:09:00;;;;;;;3.37;3.10;;;16.30;49.30;;;;;;20035;6846;120294;-89
2022/09/29 09:11:50;;;;;;;3.60;3.40;;;16.10;50.10;;;;;;20611;6769;307319;-88
2022/09/29 09:14:48;;;;;;;3.30;3.10;;;16.20;48.70;;;;;;20873;6761;116741;-90
2022/09/29 09:18:03;;;;;;;3.80;3.40;;;16.30;49.40;;;;;;20686;6748;306370;-88
2022/09/29 09:21:18;;;;;;;;;;;;;;;;;;;;;
2022/09/29 09:23:54;;;;;;;3.23;3.00;;;16.50;49.10;;;;;;19612;7117;120106;-87
2022/09/29 09:26:32;;;;;;;3.07;2.80;;;16.30;49.80;;;;;;20600;6822;121427;-88
2022/09/29 09:29:31;;;;;;;3.53;3.00;;;16.10;50.30;;;;;;20855;6763;117257;-87
2022/09/29 09:32:20;;;;;;;2.80;2.60;;;16.00;50.80;;;;;;20850;6750;117707;-88
2022/09/29 09:35:10;;;;;;;2.50;2.23;;;16.00;51.00;;;;;;20874;6755;118453;-88
2022/09/29 09:37:46;;;;;;;8.60;7.80;;;15.90;51.10;;;;;;20831;6770;120535;-88
2022/09/29 09:40:28;;;;;;;3.00;2.80;;;15.90;51.20;;;;;;20610;6770;330420;-88
2022/09/29 09:43:04;;;;;;;2.77;2.57;;;16.20;48.70;;;;;;20710;6770;119221;-88
2022/09/29 09:46:00;;;;;;;2.87;2.37;;;16.30;49.30;;;;;;20819;6806;117799;-87
2022/09/29 09:48:36;;;;;;;2.85;2.53;;;16.20;49.70;;;;;;20594;6770;310039;-87
2022/09/29 09:51:32;;;;;;;2.63;2.33;;;16.50;47.70;;;;;;20818;6770;117188;-88
2022/09/29 09:54:11;;;;;;;2.40;2.20;;;16.50;48.40;;;;;;20815;6770;117320;-87
2022/09/29 09:56:46;;;;;;;2.37;2.17;;;16.30;49.10;;;;;;20559;6772;278044;-88
2022/09/29 09:59:29;;;;;;;3.40;2.23;;;16.50;47.70;;;;;;20830;6740;117105;-87
2022/09/29 10:02:04;;;;;;;2.40;1.87;;;16.60;48.20;;;;;;20734;6775;116953;-88
2022/09/29 10:04:41;;;;;;;2.00;1.80;;;16.40;48.70;;;;;;20597;6767;336112;-88
2022/09/29 10:07:19;;;;;;;1.97;1.83;;;16.70;47.70;;;;;;20557;6786;309915;-87
2022/09/29 10:09:55;;;;;;;1.93;1.80;;;17.00;44.10;;;;;;20792;6765;116922;-88
2022/09/29 10:12:30;;;;;;;2.58;2.37;;;17.00;45.60;;;;;;20462;6804;307060;-86
2022/09/29 10:15:32;;;;;;;2.13;1.97;;;17.10;44.80;;;;;;20779;6776;116991;-90
2022/09/29 10:19:17;;;;;;;2.03;1.93;;;17.00;45.60;;;;;;20747;6787;118244;-88
2022/09/29 10:21:37;;;;;;;1.87;1.77;;;16.70;46.60;;;;;;20685;6767;117596;-92
2022/09/29 10:24:22;;;;;;;2.40;2.20;;;16.50;47.50;;;;;;20548;6768;308114;-88
2022/09/29 10:27:01;;;;;;;1.80;1.70;;;16.70;45.20;;;;;;20820;6761;117174;-88
2022/09/29 10:29:40;;;;;;;1.93;1.33;;;16.70;45.90;;;;;;20733;6782;119446;-88
2022/09/29 10:32:16;;;;;;;1.90;1.30;;;16.60;46.60;;;;;;20404;6786;280576;-85
2022/09/29 10:34:54;;;;;;;1.43;1.33;;;16.80;44.30;;;;;;20703;6785;116326;-89
2022/09/29 10:37:34;;;;;;;2.10;1.40;;;16.80;45.00;;;;;;20792;6775;117363;-84
2022/09/29 10:40:16;;;;;;;2.40;2.30;;;16.70;45.60;;;;;;20769;6781;117065;-85
2022/09/29 10:42:52;;;;;;;2.17;1.63;;;16.50;46.10;;;;;;20453;6797;308577;-84
2022/09/29 10:45:30;;;;;;;2.93;1.70;;;16.70;44.20;;;;;;20702;6803;117209;-84
2022/09/29 10:48:15;;;;;;;2.57;2.37;;;16.80;45.10;;;;;;20597;6773;307546;-85
2022/09/29 10:50:50;;;;;;;1.60;1.50;;;17.10;44.10;;;;;;20808;6778;116817;-83
2022/09/29 10:53:35;;;;;;;1.70;1.60;;;17.10;44.80;;;;;;20641;6792;116507;-84
2022/09/29 10:56:28;;;;;;;1.60;1.50;;;16.90;45.30;;;;;;20744;6778;119370;-84
2022/09/29 10:59:01;;;;;;;1.85;1.73;;;16.70;45.90;;;;;;20603;6768;291570;-83
2022/09/29 11:01:37;;;;;;;2.10;1.37;;;16.80;42.90;;;;;;20825;6763;117602;-84
2022/09/29 11:04:32;;;;;;;2.50;1.73;;;16.90;44.00;;;;;;20792;6778;117822;-84
2022/09/29 11:07:09;;;;;;;1.67;1.57;;;16.70;44.70;;;;;;20730;6793;122687;-84
2022/09/29 11:09:43;;;;;;;1.48;1.37;;;16.60;45.40;;;;;;20551;6777;281525;-86
2022/09/29 11:12:33;;;;;;;1.80;1.70;;;16.90;43.50;;;;;;20502;6789;297671;-85
2022/09/29 11:15:26;;;;;;;1.77;1.30;;;17.40;42.70;;;;;;20794;6832;116282;-84
2022/09/29 11:18:01;;;;;;;1.77;1.50;;;17.50;43.60;;;;;;20874;6751;119214;-83
2022/09/29 11:20:37;;;;;;;2.27;1.57;;;17.50;44.60;;;;;;20783;6833;117793;-85
2022/09/29 11:23:21;;;;;;;1.47;1.30;;;17.50;45.10;;;;;;20696;6788;122679;-83
2022/09/29 11:25:57;;;;;;;1.93;1.50;;;17.50;45.40;;;;;;20858;6759;119707;-84
2022/09/29 11:28:49;;;;;;;1.43;1.33;;;17.60;45.80;;;;;;20857;6759;116492;-83
2022/09/29 11:31:29;;;;;;;1.10;1.10;;;17.70;46.10;;;;;;20323;6815;118478;-85
2022/09/29 11:34:11;;;;;;;1.80;1.70;;;17.80;46.10;;;;;;20412;6830;302528;-84
2022/09/29 11:37:05;;;;;;;;;;;;;;;;;;;;;
2022/09/29 11:39:44;;;;;;;2.10;1.60;;;18.70;41.40;;;;;;20895;6747;117166;-86
2022/09/29 11:42:26;;;;;;;1.80;1.30;;;18.80;42.80;;;;;;20800;6759;117580;-86
2022/09/29 11:45:02;;;;;;;2.40;2.20;;;18.70;43.60;;;;;;20591;6774;308112;-86
2022/09/29 11:48:07;;;;;;;1.80;1.70;;;18.90;41.70;;;;;;20556;6774;280702;-85
2022/09/29 11:50:52;;;;;;;1.93;1.30;;;19.20;40.70;;;;;;20619;6766;278146;-85
2022/09/29 11:53:41;;;;;;;1.97;1.40;;;19.50;40.60;;;;;;20697;6759;122602;-85
2022/09/29 11:56:46;;;;;;;1.50;1.40;;;19.40;41.70;;;;;;20635;6759;277195;-85
2022/09/29 11:59:32;;;;;;;1.77;1.30;;;19.50;39.70;;;;;;20844;6759;117296;-85
2022/09/29 12:02:27;;;;;;;1.40;1.30;;;19.40;41.10;;;;;;20804;6759;118649;-85
2022/09/29 12:05:04;;;;;;;1.40;1.30;;;19.20;42.00;;;;;;20890;6744;117642;-85
2022/09/29 12:07:58;;;;;;;1.50;1.40;;;19.10;43.30;;;;;;20656;6744;309840;-86
2022/09/29 12:10:46;;;;;;;2.40;2.20;;;19.30;40.60;;;;;;20121;6845;119424;-86
2022/09/29 12:13:35;;;;;;;1.40;1.30;;;19.30;41.60;;;;;;19852;6897;280392;-86
2022/09/29 12:16:14;;;;;;;1.85;1.67;;;19.50;40.90;;;;;;20592;6769;312919;-86
2022/09/29 12:18:49;;;;;;;1.70;1.60;;;19.90;39.40;;;;;;20588;6769;308206;-86
2022/09/29 12:21:36;;;;;;;2.17;1.98;;;20.10;39.40;;;;;;20625;6759;312253;-85
2022/09/29 12:24:35;;;;;;;1.70;1.60;;;20.20;38.50;;;;;;20584;6774;311541;-87
2022/09/29 12:27:24;;;;;;;1.90;1.40;;;20.30;38.00;;;;;;20646;6800;310505;-85
2022/09/29 12:30:03;;;;;;;1.83;1.42;;;20.20;38.30;;;;;;20667;6744;277594;-87
2022/09/29 12:32:38;;;;;;;1.50;1.40;;;20.20;38.10;;;;;;20814;6744;123808;-85
2022/09/29 12:35:14;;;;;;;2.30;2.00;;;19.80;39.40;;;;;;20836;6815;121688;-87
2022/09/29 12:37:59;;;;;;;1.58;1.30;;;19.40;40.30;;;;;;20571;6774;310228;-85
2022/09/29 12:40:32;;;;;;;1.70;1.60;;;19.40;39.60;;;;;;20811;6774;117891;-85
2022/09/29 12:43:10;;;;;;;1.13;1.13;;;19.30;40.50;;;;;;20689;6774;116257;-86
2022/09/29 12:46:02;;;;;;;1.62;1.30;;;19.00;41.10;;;;;;20630;6754;277450;-85
2022/09/29 12:48:41;;;;;;;1.40;1.30;;;19.10;39.70;;;;;;20825;6819;117289;-86
2022/09/29 12:51:26;;;;;;;1.20;1.10;;;19.10;40.80;;;;;;20787;6777;117463;-85
2022/09/29 12:54:02;;;;;;;1.20;1.10;;;18.90;41.10;;;;;;20854;6744;117294;-86
2022/09/29 12:56:37;;;;;;;1.27;1.27;;;18.60;41.50;;;;;;20652;6815;122002;-86
2022/09/29 12:59:37;;;;;;;1.33;1.23;;;18.40;41.90;;;;;;20835;6759;117208;-86
2022/09/29 13:02:21;;;;;;;1.13;1.13;;;18.30;42.40;;;;;;20584;6759;303266;-86
2022/09/29 13:05:03;;;;;;;1.00;1.00;;;18.60;40.40;;;;;;20689;6744;278658;-86
2022/09/29 13:07:58;;;;;;;0.90;0.90;;;18.90;39.30;;;;;;20884;6744;120928;-86
2022/09/29 13:10:50;;;;;;;1.60;1.17;;;18.90;40.20;;;;;;20894;6744;117328;-86
2022/09/29 13:13:35;;;;;;;0.83;0.70;;;18.60;40.80;;;;;;19629;7116;119331;-87
2022/09/29 13:16:27;;;;;;;1.40;1.08;;;18.20;41.40;;;;;;20637;6759;307121;-85
2022/09/29 13:19:42;;;;;;;4.33;1.40;;;18.40;39.90;;;;;;20868;6754;121874;-86
2022/09/29 13:22:25;;;;;;;1.27;1.00;;;18.30;40.70;;;;;;20532;6781;341542;-87
2022/09/29 13:25:04;;;;;;;1.92;1.42;;;18.60;39.30;;;;;;20700;6752;304660;-87
2022/09/29 13:27:45;;;;;;;1.57;1.40;;;18.80;38.50;;;;;;20810;6738;116471;-88
2022/09/29 13:30:21;;;;;;;2.63;1.50;;;18.80;39.80;;;;;;20728;6753;304642;-87
2022/09/29 13:33:16;;;;;;;;;;;;;;;;;;;;;
2022/09/29 13:36:22;;;;;;;1.27;1.17;;;18.70;39.40;;;;;;20678;6768;117320;-96
2022/09/29 13:39:00;;;;;;;1.10;1.10;;;18.40;40.50;;;;;;20888;6753;67699;-96
2022/09/29 13:45:18;;;;;;;1.35;1.23;;;18.30;39.50;;;;;;20712;6640;307040;-87
2022/09/29 13:47:54;;;;;;;1.27;0.90;;;18.70;38.30;;;;;;20792;6744;116346;-86
2022/09/29 13:50:55;;;;;;;1.00;1.00;;;18.50;39.40;;;;;;20864;6747;117505;-87
2022/09/29 13:53:35;;;;;;;1.73;1.30;;;18.30;40.10;;;;;;20489;6754;310623;-87
2022/09/29 13:56:12;;;;;;;1.07;1.00;;;18.40;38.00;;;;;;20842;6754;118236;-86
2022/09/29 13:58:57;;;;;;;;;;;;;;;;;;;;;
2022/09/29 14:01:39;;;;;;;;;;;;;;;;;;;;;